Time;durP1;ratioP1;P1;durP2;ratioP2;P2;SDS_P1;SDS_P2;PMS_P1;PMS_P2;Temp;Humidity;BMP_temperature;BMP_pressure;BME280_temperature;BME280_humidity;BME280_pressure;Samples;Min_cycle;Max_cycle;Signal;HPM_P1;HPM_P2
2021/09/29 00:00:07;;;;;;;8.05;7.35;;;;;;;17.60;83.20;95798.44;5052986;28;20213;-87
2021/09/29 00:02:34;;;;;;;7.97;7.32;;;;;;;17.65;82.39;95790.03;5052617;28;20577;-87
2021/09/29 00:05:02;;;;;;;8.35;7.05;;;;;;;17.63;83.14;95779.00;5052527;28;20205;-87
2021/09/29 00:07:28;;;;;;;8.00;7.30;;;;;;;17.50;84.09;95777.31;5052407;28;20201;-87
2021/09/29 00:09:54;;;;;;;7.38;6.85;;;;;;;17.51;84.02;95776.31;5052471;28;20669;-87
2021/09/29 00:12:21;;;;;;;8.57;7.70;;;;;;;17.49;84.64;95773.13;5052516;28;20229;-86
2021/09/29 00:14:48;;;;;;;7.88;7.28;;;;;;;17.49;85.03;95771.31;5052276;28;20288;-86
2021/09/29 00:17:15;;;;;;;7.75;7.07;;;;;;;17.50;84.72;95782.53;5052473;28;20213;-86
2021/09/29 00:19:41;;;;;;;8.88;8.07;;;;;;;17.55;84.03;95787.88;5052833;28;20201;-86
2021/09/29 00:22:09;;;;;;;8.88;7.25;;;;;;;17.60;83.22;95788.03;5052291;28;20236;-86
2021/09/29 00:24:36;;;;;;;8.20;7.50;;;;;;;17.61;83.27;95777.41;5052743;28;20703;-87
2021/09/29 00:27:02;;;;;;;7.55;6.68;;;;;;;17.61;83.24;95776.59;5052445;28;20205;-86
2021/09/29 00:29:29;;;;;;;7.70;7.10;;;;;;;17.66;82.70;95786.41;5052140;28;20206;-88
2021/09/29 00:31:55;;;;;;;8.02;7.32;;;;;;;17.61;82.94;95777.41;5051948;28;20224;-87
2021/09/29 00:34:33;;;;;;;7.88;7.18;;;;;;;17.63;82.91;95779.00;5052101;28;20212;-86
2021/09/29 00:37:00;;;;;;;9.07;7.63;;;;;;;17.57;83.66;95778.03;5051340;28;20224;-87
2021/09/29 00:39:28;;;;;;;8.38;7.60;;;;;;;17.46;84.20;95773.56;5051909;28;20231;-86
2021/09/29 00:41:56;;;;;;;10.23;8.63;;;;;;;17.41;84.42;95770.78;5052126;28;20229;-88
2021/09/29 00:44:23;;;;;;;9.32;8.52;;;;;;;17.36;85.14;95773.22;5051948;28;20236;-86
2021/09/29 00:46:49;;;;;;;7.78;7.07;;;;;;;17.33;85.46;95773.66;5052020;28;20205;-87
2021/09/29 00:49:16;;;;;;;10.93;8.60;;;;;;;17.36;85.52;95775.81;5052276;28;20228;-87
2021/09/29 00:51:43;;;;;;;8.35;7.65;;;;;;;17.40;85.27;95779.59;5016208;28;1026985;-86
2021/09/29 00:54:09;;;;;;;9.27;8.20;;;;;;;17.47;84.39;95775.16;5053210;28;20197;-87
2021/09/29 00:56:41;;;;;;;9.57;8.68;;;;;;;17.43;84.37;95772.16;5053077;28;20213;-86
2021/09/29 00:59:07;;;;;;;9.75;8.77;;;;;;;17.48;84.02;95767.13;5053452;28;20213;-86
2021/09/29 01:01:34;;;;;;;9.02;8.15;;;;;;;17.49;83.83;95760.91;5052850;28;20315;-87
2021/09/29 01:04:01;;;;;;;8.63;7.88;;;;;;;17.50;83.76;95765.09;5052830;28;20742;-85
2021/09/29 01:06:35;;;;;;;8.60;7.85;;;;;;;17.55;83.34;95765.22;5053145;28;20201;-86
2021/09/29 01:09:07;;;;;;;9.13;8.30;;;;;;;17.49;84.08;95770.53;5052955;28;20262;-87
2021/09/29 01:11:44;;;;;;;8.50;7.80;;;;;;;17.51;83.99;95765.91;5052650;28;20209;-88
2021/09/29 01:14:17;;;;;;;8.60;7.80;;;;;;;17.50;84.14;95769.50;5051574;28;20673;-86
2021/09/29 01:16:48;;;;;;;9.15;8.45;;;;;;;17.54;83.39;95770.66;5052364;28;20202;-89
2021/09/29 01:19:28;;;;;;;9.32;8.52;;;;;;;17.54;83.28;95775.84;5052269;28;20198;-87
2021/09/29 01:22:03;;;;;;;9.98;9.00;;;;;;;17.50;84.02;95778.13;5052437;28;20221;-87
2021/09/29 01:24:38;;;;;;;10.57;9.77;;;;;;;17.50;83.35;95785.13;5051734;28;20620;-87
2021/09/29 01:27:06;;;;;;;11.40;10.32;;;;;;;17.53;82.98;95787.28;5052155;28;20204;-87
2021/09/29 01:29:33;;;;;;;11.00;10.05;;;;;;;17.48;83.27;95781.94;5052139;28;20579;-86
2021/09/29 01:32:00;;;;;;;11.07;10.07;;;;;;;17.53;82.72;95784.69;5052083;28;20217;-88
2021/09/29 01:34:27;;;;;;;11.25;10.35;;;;;;;17.51;82.83;95786.72;5052098;28;20213;-87
2021/09/29 01:36:59;;;;;;;12.77;11.48;;;;;;;17.48;82.51;95787.94;5051691;28;20320;-87
2021/09/29 01:39:27;;;;;;;13.13;11.82;;;;;;;17.46;82.76;95795.16;5052459;28;20216;-86
2021/09/29 01:41:54;;;;;;;13.15;11.88;;;;;;;17.39;83.02;95798.84;5051661;28;20846;-86
2021/09/29 01:44:22;;;;;;;13.60;12.40;;;;;;;17.42;82.54;95801.00;5051725;28;20673;-88
2021/09/29 01:46:48;;;;;;;13.52;12.23;;;;;;;17.38;82.74;95794.63;5051878;28;20696;-88
2021/09/29 01:49:20;;;;;;;14.10;12.90;;;;;;;17.31;83.22;95797.31;5052055;28;20197;-88
2021/09/29 01:51:48;;;;;;;14.80;13.43;;;;;;;17.31;83.05;95799.13;5051327;28;20209;-86
2021/09/29 01:54:18;;;;;;;14.77;13.40;;;;;;;17.23;83.80;95794.97;5051303;28;20201;-87
2021/09/29 01:56:46;;;;;;;14.70;13.27;;;;;;;17.21;84.21;95794.38;5051495;28;20815;-87
2021/09/29 01:59:12;;;;;;;14.85;13.55;;;;;;;17.24;83.69;95799.97;5051280;28;20715;-86
2021/09/29 02:01:43;;;;;;;16.20;14.55;;;;;;;17.23;84.59;95806.16;5051714;28;20209;-86
2021/09/29 02:04:12;;;;;;;15.80;14.35;;;;;;;17.28;84.16;95805.53;5051199;28;20197;-86
2021/09/29 02:06:46;;;;;;;17.35;15.82;;;;;;;17.19;85.01;95804.19;5051463;28;20617;-87
2021/09/29 02:09:14;;;;;;;16.90;15.27;;;;;;;17.18;84.84;95802.59;5051385;28;20208;-87
2021/09/29 02:11:41;;;;;;;17.23;15.73;;;;;;;17.18;84.38;95808.59;5051790;28;20205;-86
2021/09/29 02:14:08;;;;;;;18.50;16.02;;;;;;;17.14;84.41;95812.63;5051198;28;20275;-86
2021/09/29 02:16:45;;;;;;;16.75;15.15;;;;;;;17.15;84.80;95821.22;5051677;28;20567;-86
2021/09/29 02:19:12;;;;;;;16.90;15.30;;;;;;;17.17;84.38;95827.03;5051872;28;20205;-88
2021/09/29 02:21:38;;;;;;;17.00;15.50;;;;;;;17.15;84.35;95822.03;5034393;28;20630;-87
2021/09/29 02:24:06;;;;;;;18.30;16.60;;;;;;;17.09;84.76;95817.69;5046301;28;20198;-87
2021/09/29 02:26:33;;;;;;;18.15;16.55;;;;;;;17.12;84.19;95816.47;5051610;28;20285;-88
2021/09/29 02:28:59;;;;;;;17.92;16.17;;;;;;;17.09;84.86;95809.09;5051251;28;20205;-89
2021/09/29 02:31:26;;;;;;;17.98;16.30;;;;;;;17.12;84.50;95813.88;5051023;28;20205;-88
2021/09/29 02:33:54;;;;;;;18.25;16.65;;;;;;;17.13;84.14;95805.84;5050707;28;20229;-86
2021/09/29 02:36:20;;;;;;;18.30;16.70;;;;;;;17.07;84.53;95804.09;5050396;28;20205;-86
2021/09/29 02:38:49;;;;;;;20.73;18.73;;;;;;;17.09;84.21;95801.28;5050340;28;20236;-87
2021/09/29 02:41:17;;;;;;;19.60;17.80;;;;;;;17.14;83.73;95811.84;5050477;28;20200;-86
2021/09/29 02:43:43;;;;;;;20.15;18.15;;;;;;;17.13;83.96;95825.84;5050363;28;20371;-88
2021/09/29 02:46:10;;;;;;;19.83;18.02;;;;;;;17.09;84.71;95830.69;5050779;28;20208;-87
2021/09/29 02:48:36;;;;;;;19.77;17.88;;;;;;;17.10;84.25;95839.31;5050685;28;20711;-88
2021/09/29 02:51:04;;;;;;;20.60;18.45;;;;;;;17.12;84.08;95851.09;5050286;28;20194;-86
2021/09/29 02:53:31;;;;;;;19.88;17.88;;;;;;;17.10;84.37;95852.31;5050309;28;20240;-87
2021/09/29 02:55:58;;;;;;;20.02;18.08;;;;;;;17.07;84.72;95847.53;5050557;28;20209;-86
2021/09/29 02:58:25;;;;;;;20.42;18.30;;;;;;;17.12;84.26;95858.09;5050885;28;20204;-86
2021/09/29 03:00:52;;;;;;;20.85;18.75;;;;;;;17.08;84.71;95852.53;5051034;28;20690;-86
2021/09/29 03:03:19;;;;;;;19.77;17.77;;;;;;;17.13;84.43;95860.47;5050616;28;20583;-86
2021/09/29 03:05:45;;;;;;;20.10;17.73;;;;;;;17.02;85.27;95857.75;5050880;28;20202;-88
2021/09/29 03:08:14;;;;;;;19.20;16.85;;;;;;;17.11;84.83;95859.13;5050112;28;20620;-88
2021/09/29 03:10:41;;;;;;;18.50;16.77;;;;;;;17.09;85.26;95858.53;5050149;28;20201;-87
2021/09/29 03:13:08;;;;;;;20.08;16.98;;;;;;;17.18;84.21;95858.03;5049931;28;20209;-86
2021/09/29 03:15:34;;;;;;;18.08;16.27;;;;;;;17.19;84.43;95866.66;5050110;28;20201;-87
2021/09/29 03:18:01;;;;;;;19.05;16.95;;;;;;;17.20;84.33;95857.84;5050372;28;20618;-88
2021/09/29 03:20:29;;;;;;;19.10;17.10;;;;;;;17.17;84.84;95858.25;5050490;28;20280;-86
2021/09/29 03:22:56;;;;;;;18.20;16.38;;;;;;;17.21;84.27;95855.03;5049529;28;20256;-87
2021/09/29 03:25:24;;;;;;;19.80;17.80;;;;;;;17.19;84.58;95866.66;5049382;28;20201;-86
2021/09/29 03:27:51;;;;;;;18.58;16.77;;;;;;;17.16;85.00;95880.06;5049812;28;20202;-86
2021/09/29 03:30:18;;;;;;;18.40;16.73;;;;;;;17.15;84.31;95875.88;5049895;28;20216;-86
2021/09/29 03:32:44;;;;;;;17.48;15.70;;;;;;;17.12;84.85;95873.72;5050002;28;20282;-89
2021/09/29 03:35:12;;;;;;;17.02;15.40;;;;;;;17.20;84.45;95870.84;5050248;28;20201;-86
2021/09/29 03:37:40;;;;;;;16.95;15.20;;;;;;;17.19;84.04;95867.44;5049294;28;20715;-88
2021/09/29 03:40:08;;;;;;;16.52;14.90;;;;;;;17.19;84.32;95851.03;5049919;28;20233;-86
2021/09/29 03:42:36;;;;;;;17.65;15.88;;;;;;;17.22;84.27;95854.00;5049850;28;20221;-86
2021/09/29 03:45:04;;;;;;;17.25;15.55;;;;;;;17.26;84.24;95862.22;5049922;28;20205;-86
2021/09/29 03:47:31;;;;;;;16.77;15.13;;;;;;;17.23;84.17;95855.63;5049742;28;20262;-87
2021/09/29 03:49:57;;;;;;;16.48;14.70;;;;;;;17.24;84.23;95861.63;5049636;28;20213;-87
2021/09/29 03:52:24;;;;;;;17.25;14.90;;;;;;;17.29;83.98;95861.00;5049175;28;20320;-86
2021/09/29 03:54:51;;;;;;;16.17;14.52;;;;;;;17.29;83.84;95867.00;5049534;28;20204;-87
2021/09/29 03:57:17;;;;;;;16.95;15.10;;;;;;;17.29;83.89;95872.19;5049504;28;20209;-86
2021/09/29 03:59:45;;;;;;;15.77;14.23;;;;;;;17.24;84.25;95861.63;5049367;28;20205;-86
2021/09/29 04:02:11;;;;;;;16.52;14.90;;;;;;;17.22;83.84;95861.03;5049363;28;20225;-87
2021/09/29 04:04:38;;;;;;;15.60;14.00;;;;;;;17.17;84.35;95859.03;5050426;28;20209;-86
2021/09/29 04:07:04;;;;;;;16.73;14.57;;;;;;;17.20;84.04;95853.44;5053110;28;20205;-86
2021/09/29 04:09:31;;;;;;;16.00;14.35;;;;;;;17.24;83.79;95861.63;5053930;28;20288;-88
2021/09/29 04:11:57;;;;;;;15.68;14.18;;;;;;;17.23;83.61;95862.63;5054201;28;20627;-87
2021/09/29 04:14:24;;;;;;;15.30;13.75;;;;;;;17.25;83.69;95868.41;5053700;28;20610;-86
2021/09/29 04:16:52;;;;;;;16.33;14.57;;;;;;;17.26;83.59;95860.41;5053407;28;20201;-88
2021/09/29 04:19:18;;;;;;;16.58;14.45;;;;;;;17.25;83.25;95864.00;5053300;28;20213;-86
2021/09/29 04:21:45;;;;;;;15.38;13.88;;;;;;;17.25;83.41;95858.81;5052893;28;20209;-87
2021/09/29 04:24:11;;;;;;;15.38;13.63;;;;;;;17.25;83.41;95865.81;5052866;28;20311;-88
2021/09/29 04:26:38;;;;;;;14.45;13.02;;;;;;;17.27;83.40;95869.00;5053455;28;20259;-87
2021/09/29 04:29:05;;;;;;;14.40;12.90;;;;;;;17.29;83.35;95867.00;5053049;28;20201;-88
2021/09/29 04:31:32;;;;;;;15.13;13.52;;;;;;;17.24;83.70;95872.03;5053147;28;20212;-87
2021/09/29 04:34:00;;;;;;;14.48;13.15;;;;;;;17.25;83.43;95876.22;5052638;28;20217;-88
2021/09/29 04:36:26;;;;;;;14.07;12.43;;;;;;;17.26;83.31;95867.41;5052481;28;20258;-87
2021/09/29 04:38:53;;;;;;;15.52;12.95;;;;;;;17.24;83.33;95878.03;5052956;28;20201;-86
2021/09/29 04:41:19;;;;;;;13.40;11.57;;;;;;;17.24;83.24;95875.44;5052560;28;20623;-84
2021/09/29 04:43:46;;;;;;;13.32;11.90;;;;;;;17.27;83.25;95869.00;5052684;28;20750;-83
2021/09/29 04:46:12;;;;;;;13.30;12.05;;;;;;;17.28;83.19;95886.22;5052586;28;20583;-84
2021/09/29 04:48:38;;;;;;;12.90;11.60;;;;;;;17.29;83.33;95882.63;5052840;28;20204;-84
2021/09/29 04:51:06;;;;;;;13.38;11.48;;;;;;;17.22;83.42;95887.06;5052847;28;20267;-84
2021/09/29 04:53:33;;;;;;;12.15;11.10;;;;;;;17.21;83.43;95885.47;5052245;28;20229;-84
2021/09/29 04:56:00;;;;;;;12.98;11.68;;;;;;;17.22;83.28;95884.44;5052641;28;20201;-84
2021/09/29 04:58:27;;;;;;;12.32;11.13;;;;;;;17.24;83.19;95885.03;5052551;28;20263;-84
2021/09/29 05:00:53;;;;;;;14.68;11.00;;;;;;;17.27;83.16;95887.22;5052221;28;20219;-83
2021/09/29 05:03:20;;;;;;;12.50;11.25;;;;;;;17.29;83.03;95887.03;5052070;28;20707;-85
2021/09/29 05:05:47;;;;;;;14.52;11.57;;;;;;;17.26;82.86;95891.63;5052478;28;20669;-84
2021/09/29 05:08:21;;;;;;;12.77;11.00;;;;;;;17.27;83.04;95885.41;5052617;28;20197;-84
2021/09/29 05:10:55;;;;;;;12.25;10.95;;;;;;;17.29;82.83;95893.03;5051978;28;20650;-83
2021/09/29 05:13:27;;;;;;;12.73;10.70;;;;;;;17.31;82.94;95898.81;5052025;28;20639;-84
2021/09/29 05:15:53;;;;;;;11.20;10.18;;;;;;;17.30;83.20;95899.03;5050499;28;20237;-83
2021/09/29 05:18:20;;;;;;;12.90;10.77;;;;;;;17.30;83.30;95904.22;5052376;28;20206;-84
2021/09/29 05:20:47;;;;;;;12.10;10.85;;;;;;;17.29;83.52;95903.44;5041976;28;20206;-84
2021/09/29 05:23:14;;;;;;;11.73;9.88;;;;;;;17.26;83.32;95896.84;5042803;28;20230;-84
2021/09/29 05:25:42;;;;;;;13.88;10.48;;;;;;;17.23;83.31;95902.47;5051432;28;20205;-84
2021/09/29 05:28:13;;;;;;;15.32;13.13;;;;;;;17.25;83.29;95902.25;5052004;28;20205;-84
2021/09/29 05:30:40;;;;;;;11.85;9.65;;;;;;;17.16;83.27;95908.69;5052436;28;20213;-85
2021/09/29 05:33:06;;;;;;;11.15;8.77;;;;;;;17.13;83.76;95907.31;5052333;28;20233;-84
2021/09/29 05:35:33;;;;;;;8.57;7.70;;;;;;;17.08;83.29;95907.16;5052097;28;20206;-84
2021/09/29 05:38:02;;;;;;;8.40;7.57;;;;;;;17.07;83.56;95910.75;5051333;28;20295;-84
2021/09/29 05:40:29;;;;;;;7.90;7.10;;;;;;;17.07;83.37;95915.97;5051586;28;20213;-84
2021/09/29 05:42:56;;;;;;;7.50;6.80;;;;;;;17.09;83.15;95913.97;5051155;28;20275;-84
2021/09/29 05:45:23;;;;;;;7.75;7.03;;;;;;;17.11;82.20;95908.53;5051208;28;20205;-84
2021/09/29 05:47:49;;;;;;;7.72;6.75;;;;;;;17.15;81.93;95914.91;5051310;28;20228;-84
2021/09/29 05:50:16;;;;;;;7.55;6.68;;;;;;;17.18;81.91;95917.09;5051321;28;20202;-83
2021/09/29 05:52:42;;;;;;;6.63;6.03;;;;;;;17.15;81.58;95920.13;5050811;28;20234;-84
2021/09/29 05:55:10;;;;;;;6.22;5.72;;;;;;;17.11;81.58;95919.75;5050589;28;20198;-83
2021/09/29 05:57:36;;;;;;;8.40;6.50;;;;;;;17.12;81.55;95925.75;5050962;28;20228;-83
2021/09/29 06:00:05;;;;;;;7.15;6.45;;;;;;;17.09;81.79;95924.38;5051159;28;20201;-84
2021/09/29 06:02:32;;;;;;;7.90;6.40;;;;;;;17.13;81.80;95927.31;5051176;28;20223;-84
2021/09/29 06:04:58;;;;;;;6.95;6.03;;;;;;;17.04;82.71;95937.19;5050660;28;20229;-84
2021/09/29 06:07:27;;;;;;;7.20;6.43;;;;;;;16.93;83.12;95933.44;5050821;28;20212;-84
2021/09/29 06:09:53;;;;;;;6.25;5.65;;;;;;;16.91;83.71;95935.47;5051593;28;20689;-84
2021/09/29 06:12:20;;;;;;;7.47;6.05;;;;;;;16.91;84.72;95945.88;5053126;28;20228;-84
2021/09/29 06:14:50;;;;;;;7.07;6.38;;;;;;;16.97;84.13;95935.63;5053348;28;20201;-85
2021/09/29 06:17:23;;;;;;;5.90;5.40;;;;;;;16.93;83.19;95941.22;5052244;28;20229;-84
2021/09/29 06:19:50;;;;;;;5.22;4.72;;;;;;;16.84;82.76;95954.69;5053094;28;20229;-84
2021/09/29 06:22:17;;;;;;;5.30;4.90;;;;;;;16.74;82.41;95949.91;5051956;28;20218;-84
2021/09/29 06:24:44;;;;;;;5.00;4.32;;;;;;;16.80;82.75;95956.09;5052199;28;20588;-84
2021/09/29 06:27:10;;;;;;;4.65;4.20;;;;;;;16.79;82.20;95965.69;5052061;28;20212;-84
2021/09/29 06:29:37;;;;;;;5.28;4.78;;;;;;;16.84;81.88;95952.88;5052302;28;20202;-84
2021/09/29 06:32:04;;;;;;;4.80;4.30;;;;;;;16.82;81.62;95957.50;5052577;28;20224;-84
2021/09/29 06:34:32;;;;;;;4.60;3.97;;;;;;;16.84;81.23;95952.88;5051840;28;20217;-84
2021/09/29 06:36:59;;;;;;;4.50;3.75;;;;;;;16.83;80.10;95947.88;5050838;28;20225;-83
2021/09/29 06:39:25;;;;;;;4.10;3.70;;;;;;;16.91;79.81;95960.69;5052617;28;20746;-83
2021/09/29 06:41:52;;;;;;;3.70;3.30;;;;;;;16.88;78.98;95955.88;5052270;28;20202;-84
2021/09/29 06:44:18;;;;;;;4.97;3.20;;;;;;;16.93;78.65;95959.44;5051809;28;20225;-83
2021/09/29 06:46:45;;;;;;;3.75;3.10;;;;;;;16.93;78.09;95961.28;5052317;28;20223;-84
2021/09/29 06:49:11;;;;;;;4.22;2.90;;;;;;;16.93;77.59;95966.47;5052088;28;20263;-84
2021/09/29 06:51:39;;;;;;;3.05;2.53;;;;;;;16.93;76.93;95959.44;5050997;28;20201;-85
2021/09/29 06:54:08;;;;;;;3.03;2.72;;;;;;;16.92;76.32;95972.69;5051888;28;20229;-84
2021/09/29 06:56:35;;;;;;;4.05;2.70;;;;;;;16.88;75.74;95971.47;5052129;28;20263;-84
2021/09/29 06:59:01;;;;;;;2.55;2.35;;;;;;;16.88;75.58;95971.47;5051483;28;20198;-84
2021/09/29 07:01:28;;;;;;;2.47;2.28;;;;;;;16.91;75.46;95971.06;5051257;28;20194;-84
2021/09/29 07:03:54;;;;;;;2.53;2.33;;;;;;;16.79;73.86;95983.91;5051415;28;20640;-84
2021/09/29 07:06:21;;;;;;;4.68;4.00;;;;;;;16.81;74.61;95986.31;5051253;28;20209;-85
2021/09/29 07:08:48;;;;;;;2.83;2.53;;;;;;;16.83;74.75;95994.69;5051520;28;20607;-87
2021/09/29 07:11:16;;;;;;;4.40;2.30;;;;;;;16.93;74.61;96003.66;5051642;28;20201;-88
2021/09/29 07:13:45;;;;;;;3.25;2.30;;;;;;;16.83;72.88;95987.69;5051507;28;20218;-88
2021/09/29 07:16:12;;;;;;;3.38;2.00;;;;;;;16.80;72.98;95988.09;5050749;28;20209;-88
2021/09/29 07:18:39;;;;;;;2.55;2.20;;;;;;;16.85;73.21;95998.69;5051196;28;20233;-86
2021/09/29 07:21:06;;;;;;;3.03;2.20;;;;;;;16.89;73.05;95994.69;5051202;28;20683;-87
2021/09/29 07:23:32;;;;;;;3.65;2.35;;;;;;;16.86;71.97;96002.09;5051206;28;20232;-86
2021/09/29 07:26:00;;;;;;;3.53;2.10;;;;;;;16.84;72.42;96004.09;5051751;28;20197;-86
2021/09/29 07:28:28;;;;;;;3.38;2.15;;;;;;;16.87;71.64;96008.91;5051252;28;20211;-86
2021/09/29 07:30:54;;;;;;;2.40;2.20;;;;;;;16.86;70.89;96008.09;5051402;28;20665;-87
2021/09/29 07:33:21;;;;;;;2.75;2.13;;;;;;;16.95;70.54;96015.66;5051675;28;20731;-87
2021/09/29 07:35:48;;;;;;;3.60;1.98;;;;;;;17.03;70.31;96018.06;5051854;28;20205;-88
2021/09/29 07:38:14;;;;;;;2.03;1.75;;;;;;;17.02;69.28;96021.66;5050359;28;20233;-86
2021/09/29 07:40:41;;;;;;;2.03;1.83;;;;;;;17.04;68.93;96015.25;5053895;28;20209;-87
2021/09/29 07:43:09;;;;;;;1.75;1.60;;;;;;;16.98;67.85;96016.06;5054632;28;20229;-87
2021/09/29 07:45:36;;;;;;;2.88;1.60;;;;;;;17.05;68.31;96022.03;5054430;28;20221;-86
2021/09/29 07:48:02;;;;;;;2.90;1.70;;;;;;;17.05;67.73;96032.47;5054487;28;20198;-86
2021/09/29 07:50:29;;;;;;;2.72;1.60;;;;;;;17.01;66.22;96036.47;5055000;28;20204;-86
2021/09/29 07:52:55;;;;;;;2.05;1.67;;;;;;;17.06;66.40;96036.66;5054584;28;20233;-86
2021/09/29 07:55:22;;;;;;;2.88;1.58;;;;;;;17.05;66.44;96031.66;5054481;28;20198;-87
2021/09/29 07:57:48;;;;;;;2.65;1.60;;;;;;;17.08;65.21;96032.03;5054773;28;20201;-86
2021/09/29 08:00:21;;;;;;;2.63;1.55;;;;;;;17.00;64.99;96028.88;5054628;28;20193;-86
2021/09/29 08:02:48;;;;;;;5.57;1.90;;;;;;;17.08;65.03;96032.03;5055147;28;20221;-88
2021/09/29 08:05:15;;;;;;;2.50;1.50;;;;;;;17.08;64.98;96034.66;5054622;28;20225;-86
2021/09/29 08:07:42;;;;;;;4.28;2.10;;;;;;;17.01;63.84;96033.06;5054770;28;20574;-87
2021/09/29 08:10:10;;;;;;;2.10;1.40;;;;;;;17.00;63.85;96041.88;5054839;28;20205;-86
2021/09/29 08:12:37;;;;;;;1.60;1.42;;;;;;;16.97;63.02;96042.28;5054545;28;20590;-86
2021/09/29 08:15:11;;;;;;;2.70;1.55;;;;;;;16.85;61.83;96049.91;5054000;28;20201;-86
2021/09/29 08:17:42;;;;;;;1.73;1.25;;;;;;;16.90;62.26;96053.50;5054498;28;20693;-87
2021/09/29 08:20:10;;;;;;;1.83;1.35;;;;;;;17.05;62.57;96053.25;5054277;28;20293;-86
2021/09/29 08:22:37;;;;;;;1.80;1.30;;;;;;;17.03;61.46;96052.66;5053815;28;20652;-88
2021/09/29 08:25:15;;;;;;;1.52;1.40;;;;;;;17.09;61.70;96057.06;5053561;28;20316;-86
2021/09/29 08:27:55;;;;;;;6.43;4.72;;;;;;;17.08;61.55;96055.47;5054165;28;20205;-86
2021/09/29 08:30:27;;;;;;;3.17;2.33;;;;;;;17.03;60.95;96060.47;5053528;28;20206;-86
2021/09/29 08:32:59;;;;;;;4.35;1.48;;;;;;;16.88;60.37;96068.53;5053789;28;20222;-86
2021/09/29 08:35:30;;;;;;;2.58;1.42;;;;;;;16.84;60.69;96066.53;5053453;28;20242;-86
2021/09/29 08:38:02;;;;;;;1.60;1.27;;;;;;;16.91;61.31;96069.94;5052934;28;20245;-87
2021/09/29 08:40:41;;;;;;;2.58;1.40;;;;;;;17.03;61.22;96063.06;5053604;28;20205;-87
2021/09/29 08:45:56;;;;;;;2.78;1.60;;;;;;;17.44;60.52;96072.34;5051086;28;20266;-86
2021/09/29 08:48:33;;;;;;;1.90;1.35;;;;;;;17.48;59.80;96074.34;5053411;28;20321;-86
2021/09/29 08:54:00;;;;;;;2.10;1.40;;;;;;;18.03;59.78;96076.47;5034947;28;20247;-88
2021/09/29 08:57:01;;;;;;;1.75;1.30;;;;;;;18.19;57.08;96079.34;5053538;28;20627;-85
2021/09/29 09:16:00;;;;;;;2.10;1.20;;;;;;;17.90;54.90;96088.53;5052664;28;20220;-88
2021/09/29 09:18:27;;;;;;;2.67;1.00;;;;;;;17.84;55.94;96089.41;5052756;28;20296;-86
2021/09/29 09:21:01;;;;;;;1.52;1.13;;;;;;;17.86;55.88;96092.59;5052114;28;20280;-86
2021/09/29 09:23:35;;;;;;;1.92;1.20;;;;;;;17.88;55.40;96085.38;5052159;28;20295;-87
2021/09/29 09:26:12;;;;;;;1.52;1.00;;;;;;;17.82;55.82;96078.38;5052035;28;20764;-86
2021/09/29 09:28:39;;;;;;;1.50;1.10;;;;;;;17.77;55.42;96080.81;5052471;28;20267;-87
2021/09/29 09:31:09;;;;;;;2.38;0.93;;;;;;;17.77;55.30;96077.41;5052339;28;20201;-87
2021/09/29 09:33:47;;;;;;;2.30;1.23;;;;;;;17.84;56.03;96080.78;5052353;28;20256;-86
2021/09/29 09:36:27;;;;;;;2.10;1.10;;;;;;;17.91;56.46;96074.50;5048961;28;20206;-88
2021/09/29 09:38:54;;;;;;;3.80;3.10;;;;;;;17.97;56.23;96077.28;5032256;28;20225;-86
2021/09/29 09:41:20;;;;;;;2.92;1.30;;;;;;;18.03;54.69;96079.06;5032533;28;20284;-86
2021/09/29 09:43:56;;;;;;;1.40;1.00;;;;;;;18.09;54.72;96073.03;5031874;28;20226;-86
2021/09/29 09:46:24;;;;;;;0.93;0.90;;;;;;;18.25;54.97;96080.31;5031877;28;20221;-88
2021/09/29 09:49:05;;;;;;;1.60;0.90;;;;;;;18.19;53.51;96071.53;5031768;28;20214;-87
2021/09/29 09:51:46;;;;;;;2.10;1.35;;;;;;;18.00;52.42;96071.66;5050628;28;20206;-86
2021/09/29 09:54:15;;;;;;;2.38;1.30;;;;;;;18.04;53.00;96065.81;5051268;28;20197;-88
2021/09/29 09:56:46;;;;;;;1.05;0.85;;;;;;;18.06;52.49;96065.63;5051502;28;20224;-86
2021/09/29 09:59:12;;;;;;;1.90;1.00;;;;;;;17.99;52.45;96055.22;5051002;28;20212;-86
2021/09/29 10:01:42;;;;;;;3.13;1.20;;;;;;;18.05;52.08;96058.81;5051095;28;20198;-86
2021/09/29 10:04:10;;;;;;;2.28;0.90;;;;;;;18.10;52.27;96059.75;5050690;28;20222;-86
2021/09/29 10:06:38;;;;;;;1.60;1.00;;;;;;;18.17;52.96;96059.72;5051596;28;20205;-86
2021/09/29 10:09:10;;;;;;;1.63;1.13;;;;;;;18.28;52.82;96052.00;5051600;28;20205;-86
2021/09/29 10:11:49;;;;;;;1.40;1.00;;;;;;;18.34;52.83;96057.38;5051536;28;20266;-89
2021/09/29 10:22:55;;;;;;;4.95;1.30;;;;;;;18.59;51.65;96059.00;5050582;28;20228;-87
2021/09/29 10:28:10;;;;;;;1.88;1.10;;;;;;;18.80;51.22;96046.56;5050131;28;20303;-86
2021/09/29 10:30:40;;;;;;;1.98;1.10;;;;;;;18.72;50.22;96052.84;5050820;28;20205;-86
2021/09/29 10:33:10;;;;;;;2.50;1.15;;;;;;;18.80;50.99;96046.56;5050740;28;20229;-86
2021/09/29 10:35:57;;;;;;;1.50;0.90;;;;;;;18.89;50.14;96048.66;5050366;28;20198;-88
2021/09/29 10:41:38;;;;;;;1.88;1.10;;;;;;;19.31;49.94;96033.91;5035777;28;20196;-86
2021/09/29 10:44:19;;;;;;;4.28;1.13;;;;;;;19.39;49.12;96034.66;5049695;28;20643;-86
2021/09/29 10:46:53;;;;;;;1.88;1.10;;;;;;;19.57;49.69;96042.47;5049649;28;20198;-87
2021/09/29 10:49:49;;;;;;;1.50;1.10;;;;;;;19.53;49.15;96033.47;5050346;28;20225;-86
2021/09/29 11:06:33;;;;;;;3.38;1.10;;;;;;;19.58;50.43;96031.81;5049589;28;20279;-87
2021/09/29 11:28:48;;;;;;;1.50;1.00;;;;;;;19.49;49.95;96022.66;5049635;28;20239;-86
2021/09/29 11:31:17;;;;;;;1.67;1.10;;;;;;;19.37;50.27;96021.81;5049711;28;20209;-87
2021/09/29 11:33:47;;;;;;;3.33;1.25;;;;;;;19.24;51.54;96020.16;5049737;28;20252;-87
2021/09/29 11:36:28;;;;;;;2.63;1.13;;;;;;;19.20;51.86;96007.78;5048744;28;20220;-86
2021/09/29 12:09:39;;;;;;;3.10;1.10;;;;;;;19.53;49.46;95992.50;5049448;28;20243;-88
2021/09/29 12:12:17;;;;;;;2.67;1.15;;;;;;;19.41;50.12;95991.63;5049596;28;20201;-87
2021/09/29 12:14:47;;;;;;;1.98;1.20;;;;;;;19.43;50.22;95994.03;5048752;28;20202;-83
2021/09/29 12:17:19;;;;;;;1.25;1.00;;;;;;;19.61;48.88;95991.38;5048936;28;20213;-84
2021/09/29 12:19:52;;;;;;;1.60;1.02;;;;;;;19.75;48.36;95992.78;5048764;28;20197;-84
2021/09/29 12:22:20;;;;;;;1.67;1.33;;;;;;;19.78;49.56;95997.56;5049014;28;20303;-86
2021/09/29 12:24:48;;;;;;;5.28;1.38;;;;;;;19.69;48.96;95983.22;5048910;28;20232;-86
2021/09/29 12:27:23;;;;;;;2.17;1.08;;;;;;;19.43;49.08;95979.16;5052472;28;20259;-88
2021/09/29 12:29:51;;;;;;;1.30;1.10;;;;;;;19.36;50.24;95975.81;5052598;28;20197;-87
2021/09/29 12:32:32;;;;;;;5.00;1.40;;;;;;;19.34;50.99;95975.25;5052236;28;20789;-87
2021/09/29 12:35:15;;;;;;;2.45;1.27;;;;;;;19.52;51.58;95980.44;5052284;28;20224;-87
2021/09/29 12:37:54;;;;;;;3.38;1.10;;;;;;;19.62;51.87;95979.91;5051871;28;20634;-88
2021/09/29 12:40:21;;;;;;;3.22;1.08;;;;;;;19.57;51.70;95979.78;5052396;28;20338;-86
2021/09/29 12:42:57;;;;;;;3.53;1.50;;;;;;;19.45;51.80;95979.69;5052202;28;20224;-88
2021/09/29 12:45:26;;;;;;;4.22;1.25;;;;;;;19.35;52.36;95973.44;5051801;28;20216;-87
2021/09/29 12:47:54;;;;;;;1.75;1.15;;;;;;;19.36;53.00;95967.19;5052338;28;20255;-87
2021/09/29 12:50:24;;;;;;;2.55;1.20;;;;;;;19.30;52.91;95976.69;5052312;28;20345;-89
2021/09/29 12:52:56;;;;;;;2.17;1.48;;;;;;;19.32;53.34;95980.69;5051766;28;20328;-87
2021/09/29 12:55:38;;;;;;;1.85;1.02;;;;;;;19.22;53.05;95983.03;5052049;28;20224;-87
2021/09/29 12:58:04;;;;;;;4.72;1.40;;;;;;;19.24;53.43;95980.22;5051777;28;20703;-88
2021/09/29 13:00:31;;;;;;;2.92;1.30;;;;;;;19.30;53.67;95977.50;5051881;28;20708;-87
2021/09/29 13:03:02;;;;;;;3.53;1.70;;;;;;;19.36;53.54;95977.63;5052053;28;20221;-86
2021/09/29 13:05:28;;;;;;;2.65;1.30;;;;;;;19.39;52.62;95985.84;5051487;28;20267;-88
2021/09/29 13:07:55;;;;;;;2.90;1.20;;;;;;;19.37;53.47;95985.25;5051938;28;20202;-87
2021/09/29 13:10:21;;;;;;;2.28;1.30;;;;;;;19.35;53.57;95984.66;5051757;28;20212;-86
2021/09/29 13:12:51;;;;;;;1.55;1.38;;;;;;;19.35;53.65;95982.06;5051438;28;20224;-85
2021/09/29 13:15:18;;;;;;;2.33;1.10;;;;;;;19.27;52.93;95980.53;5051214;28;20202;-84